Newton, Texas
Current Conditions -  °F | °C
As of 4:15 PM on Wednesday 28 Jan 2015 (Local Time) from KJAS Reporting Station
Clear Clear  
Wind Chill: 72°   Ceiling: Unl
Heat Index: 72°   Visibility: 10mi
Dew Point: 39°   Wind: 8mph
Humidity: 30%   Direction: 150°SSE
Pressure: 30.15"   Gusts: NA
Location:  30.85°N, 93.76°W
Report Text: KJAS 282215Z AUTO 15007KT 10SM CLR 22/04 A3015 RMK AO2 T02240041
Loading
Personal Weather Stations






























Interactive Weather Map New forecast layout! Learn more

10-Day Weather Forecast

Advertisements
Track Severe Weather on mobile